Flight Track Log - Related Links

Times and Time Zones

All times are in EST time to prevent confusion due to time zone crossing. See the UCA3597 flight status page for this flight to view local times or setup timezone preferences in your user account.

Time Position Orientation Groundspeed Altitude Reporting Facility
EST Latitude Longitude Course Direction KTS MPH feet Rate Location/Type
Thu 05:48:00 PM 39.5744 -77.1869 19° North  Level Estimated
Thu 05:49:00 PM 39.6441 -77.1563 19° North  Level Estimated
Thu 05:50:00 PM 39.7137 -77.1256 19° North  Level Estimated
Thu 05:51:00 PM 39.7833 -77.0948 19° North  Level Estimated
Thu 05:52:00 PM 39.8529 -77.0640 19° North  Level Estimated
Thu 05:53:00 PM 39.9225 -77.0331 19° North  Level Estimated
Thu 05:54:00 PM 39.9921 -77.0022 19° North  Level Estimated
Thu 05:55:00 PM 40.0617 -76.9712 19° North  Level Estimated
Thu 05:56:00 PM 40.1312 -76.9401 19° North  Level Estimated
Thu 05:57:00 PM 40.2008 -76.9089 19° North  Level Estimated
Thu 05:58:00 PM 40.2703 -76.8777 19° North  Level Estimated
Thu 05:59:00 PM 40.3399 -76.8465 19° North  Level Estimated
Thu 06:00:00 PM 40.3902 -76.8238 19° North  Level Estimated
Thu 06:01:00 PM 40.4404 -76.8011 19° North  Level Estimated
Thu 06:02:00 PM 40.4907 -76.7784 19° North  Level Estimated
Thu 06:03:00 PM 40.5410 -76.7557 19° North  Level Estimated
Thu 06:04:00 PM 40.5912 -76.7329 19° North  Level Estimated
Thu 06:05:00 PM 40.6415 -76.7100 19° North  Level Estimated
Thu 06:06:00 PM 40.6917 -76.6872 19° North  Level Estimated
Thu 06:07:00 PM 40.7420 -76.6643 19° North  Level Estimated
Thu 06:08:00 PM 40.7922 -76.6414 19° North  Level Estimated
Thu 06:09:00 PM 40.8425 -76.6184 19° North  Level Estimated
Thu 06:10:00 PM 40.8927 -76.5954 19° North  Level Estimated
Thu 06:11:00 PM 40.9430 -76.5724 19° North  Level Estimated
Thu 06:12:00 PM 40.9932 -76.5493 19° North  Level Estimated
Thu 06:13:00 PM 41.0434 -76.5262 19° North  Level Estimated
Thu 06:14:00 PM 41.0936 -76.5031 19° North  Level Estimated
Thu 06:15:00 PM 41.1438 -76.4799 19° North  Level Estimated
Thu 06:16:00 PM 41.1940 -76.4567 19° North  Level Estimated
Thu 06:17:00 PM 41.2442 -76.4335 19° North  Level Estimated
Thu 06:18:00 PM 41.2944 -76.4102 19° North  Level Estimated
Thu 06:19:00 PM 41.3446 -76.3869 19° North  Level Estimated
Thu 06:20:00 PM 41.3948 -76.3635 19° North  Level Estimated
Thu 06:21:00 PM 41.4450 -76.3402 19° North  Level Estimated
Thu 06:22:00 PM 41.4952 -76.3167 19° North  Level Estimated
Thu 06:23:00 PM 41.5453 -76.2933 19° North  Level Estimated
Thu 06:24:00 PM 41.5955 -76.2698 19° North  Level Estimated
Thu 06:25:00 PM 41.6457 -76.2463 19° North  Level Estimated
Thu 06:26:00 PM 41.6959 -76.2227 19° North  Level Estimated
Thu 06:27:00 PM 41.7460 -76.1991 19° North  Level Estimated
Thu 06:28:00 PM 41.7962 -76.1755 19° North  Level Estimated
Thu 06:29:00 PM 41.8463 -76.1518 19° North  Level Estimated
Thu 06:30:00 PM 41.8965 -76.1281 19° North  Level Estimated
Thu 06:31:00 PM 41.9466 -76.1043 19° North  Level Estimated
Thu 06:32:00 PM 41.9967 -76.0805 19° North  Level Estimated
Thu 06:33:00 PM 42.0468 -76.0567 19° North  Level Estimated
Thu 06:34:00 PM 42.0970 -76.0328 19° North  Level Estimated
Thu 06:35:00 PM 42.1471 -76.0089 19° North  Level Estimated
Thu 06:36:00 PM 42.1972 -75.9850 19° North  Level Estimated
Thu 06:37:00 PM 42.2084 -75.9796 20° North  Level Estimated
Thu 06:38:00 PM 42.2084 -75.9796 35° Northeast  Level Estimated
Thu 06:39:00 PM 42.2084 -75.9796 35° Northeast  Level Estimated
Thu 06:40:00 PM 42.2084 -75.9796 35° Northeast  Level Estimated
Thu 06:41:00 PM 42.2084 -75.9796 35° Northeast  Level Estimated
Thu 06:42:00 PM 42.2084 -75.9796 35° Northeast  Level Estimated
Thu 06:43:00 PM 42.2084 -75.9796 35° Northeast  Level Estimated
Thu 06:44:00 PM 42.2084 -75.9796 35° Northeast  Level Estimated
Thu 06:45:00 PM 42.2084 -75.9796 35° Northeast  Level Estimated
Thu 06:46:00 PM 42.2084 -75.9796 35° Northeast  Level Estimated
Thu 06:47:00 PM 42.2084 -75.9796 35° Northeast  Level Estimated
Thu 06:48:00 PM 42.2084 -75.9796 35° Northeast  Level Estimated
Thu 06:49:00 PM 42.2084 -75.9796 35° Northeast  Level Estimated
Thu 06:50:00 PM 42.2084 -75.9796 35° Northeast  Level Estimated
Thu 06:51:00 PM 42.2084 -75.9796 35° Northeast  Level Estimated

Login

Don't have an account? Register now (free) for customized features, flight alerts, and more!